Aeroporto :
LOGIN :

Iscrizione | Disclaimer

   EN    FR    IT 

 










Sommario :    VFR   VFR Marginale   IFR   IFR Intensivo   IFR Molto Intensivo
Visibilità : 
Base nubi : 
>= 8 km
>= 3000ft
5 / 8 km
1000 / 3000 ft
1500m / 5 km
500 / 1000 ft
800 / 1500m
200 / 500 ft
< 800m
< 200 ft
Simboli :   Temporali  Nebbia  Neve Forte  Precipitazioni Forti  Vento > 20 kt
SIGMETs :   Varie  Temporali  Ghiacco  Turbolenza  Onda orograficha  Ceneri Vulcaniche






- Altitudine del aeroporto : 313 ft
- Codice IATA : LEH


LFOH - Le Havre Octeville

ULTIMO METAR :
  • 061800Z AUTO 27019KT 9999 FEW028 BKN043 OVC054 12/07 Q1004

METARs OBSOLETI :
  • 061730Z AUTO 28019KT 9999 SCT032 SCT038 BKN048 13/06 Q1004
  • 061700Z AUTO 27017KT 8000 FEW035 BKN054 OVC100 13/05 Q1005
  • 061630Z AUTO 27019KT 7000 FEW037 BKN058 BKN100 14/05 Q1004
  • 061600Z AUTO 27018KT 8000 FEW035 BKN056 15/06 Q1004
  • 061530Z AUTO 28019KT 8000 FEW037 BKN056 BKN110 15/05 Q1005

Previsioni scadute.
ATIS : +33 2 35 54 64 93



MetMap, La meteo Aeronautica in un colpo d'occhio ! - Copyright ORBIFLY Dicembre 2007 - Disclaimer

ORBIFLY MET'MAP TEAM :

Programmazione e sviluppo : Alexandra Zaïnal
Concezione : Baudouin d'Aumeries
Aiuto per la programmazione : Marc-Olivier Méhu
Supporto tecnico e logistico : Manuel Goepfert
Aiuto per la traduzione : Arnaldo La Scala

Contatto : metmap@orbifly.com




FONTI E CREDITI :

   NOAA